Time,TemperatureF,DewpointF,PressureIn,WindDirection,WindDirectionDegrees,WindSpeedMPH,WindSpeedGustMPH,Humidity,HourlyPrecipIn,Conditions,Clouds,dailyrainin,SoftwareType,DateUTC
2013-01-19 08:54:00,68.0,65.0,30.16,NE,49,12.0,-999.0,89,-99.99,,,-99.99,,2013-01-19 13:54:00,
2013-01-19 09:03:00,68.0,65.0,30.16,NE,49,12.0,-999.0,89,-99.99,,,-99.99,,2013-01-19 14:03:00,
2013-01-19 09:12:00,68.0,65.0,30.16,NE,49,12.0,-999.0,89,-99.99,,,-99.99,,2013-01-19 14:12:00,
2013-01-19 09:23:00,68.0,65.0,30.16,NE,49,12.0,-999.0,89,-99.99,,,-99.99,,2013-01-19 14:23:00,
2013-01-19 10:53:00,68.0,65.0,30.19,NNE,28,11.0,13.0,89,0.00,,,0.00,,2013-01-19 15:53:00,
2013-01-19 11:03:00,68.0,65.0,30.19,NNE,22,12.0,14.0,89,0.00,,,0.00,,2013-01-19 16:03:00,
2013-01-19 11:13:00,68.0,65.0,30.19,NNE,22,12.0,14.0,89,0.00,,,0.00,,2013-01-19 16:13:00,
2013-01-19 11:23:00,69.0,65.0,30.18,NNE,30,11.0,13.0,88,0.00,,,0.00,,2013-01-19 16:23:00,
2013-01-19 11:33:00,69.0,65.0,30.17,NE,40,10.0,12.0,88,0.00,,,0.00,,2013-01-19 16:33:00,
2013-01-19 11:43:00,69.0,65.0,30.17,NE,40,10.0,12.0,88,0.00,,,0.00,,2013-01-19 16:43:00,
2013-01-19 11:54:00,69.0,65.0,30.17,NE,42,9.0,12.0,88,0.00,,,0.00,,2013-01-19 16:54:00,
2013-01-19 12:03:00,69.0,65.0,30.17,NE,48,12.0,13.0,88,0.00,,,0.00,,2013-01-19 17:03:00,
2013-01-19 12:20:00,69.0,65.0,30.17,NE,48,12.0,13.0,88,0.00,,,0.00,,2013-01-19 17:20:00,
2013-01-19 12:29:00,69.0,65.0,30.16,NE,53,9.0,13.0,87,0.00,,,0.00,,2013-01-19 17:29:00,
2013-01-19 12:35:00,70.0,66.0,30.16,NE,42,9.0,12.0,86,0.00,,,0.00,,2013-01-19 17:35:00,
2013-01-19 12:48:00,70.0,66.0,30.16,NE,42,9.0,12.0,86,0.00,,,0.00,,2013-01-19 17:48:00,
2013-01-19 12:55:00,70.0,65.0,30.14,NE,40,9.0,11.0,85,0.00,,,0.00,,2013-01-19 17:55:00,
2013-01-19 13:12:00,70.0,65.0,30.14,NE,44,7.0,11.0,85,0.00,,,0.00,,2013-01-19 18:12:00,
2013-01-19 13:28:00,70.0,65.0,30.12,North,2,8.0,12.0,84,0.00,,,0.00,,2013-01-19 18:28:00,
2013-01-19 13:35:00,71.0,66.0,30.11,NE,51,8.0,12.0,83,0.00,,,0.00,,2013-01-19 18:35:00,
2013-01-19 13:45:00,71.0,66.0,30.11,NE,51,8.0,12.0,83,0.00,,,0.00,,2013-01-19 18:45:00,
2013-01-19 14:02:00,71.0,66.0,30.10,NNE,19,9.0,11.0,83,0.00,,,0.00,,2013-01-19 19:02:00,
2013-01-19 14:09:00,71.0,65.0,30.09,NNE,28,8.0,13.0,82,0.00,,,0.00,,2013-01-19 19:09:00,
2013-01-19 14:20:00,71.0,65.0,30.09,NNE,28,8.0,13.0,82,0.00,,,0.00,,2013-01-19 19:20:00,
2013-01-19 14:30:00,72.0,65.0,30.08,NNE,19,8.0,11.0,80,0.00,,,0.00,,2013-01-19 19:30:00,
2013-01-19 14:39:00,72.0,65.0,30.08,NNE,17,8.0,10.0,80,0.00,,,0.00,,2013-01-19 19:39:00,
2013-01-19 14:47:00,72.0,65.0,30.08,NNE,17,8.0,10.0,80,0.00,,,0.00,,2013-01-19 19:47:00,
2013-01-19 14:59:00,73.0,66.0,30.08,NNW,339,6.0,9.0,78,0.00,,,0.00,,2013-01-19 19:59:00,
2013-01-19 15:10:00,73.0,66.0,30.08,NNW,332,7.0,9.0,78,0.00,,,0.00,,2013-01-19 20:10:00,
2013-01-19 15:19:00,73.0,66.0,30.08,NNW,332,7.0,9.0,78,0.00,,,0.00,,2013-01-19 20:19:00,
2013-01-19 15:25:00,73.0,66.0,30.08,NW,317,2.0,6.0,78,0.00,,,0.00,,2013-01-19 20:25:00,
2013-01-19 15:38:00,73.0,66.0,30.08,NW,321,3.0,7.0,78,0.00,,,0.00,,2013-01-19 20:38:00,
2013-01-19 15:48:00,73.0,66.0,30.08,NW,321,3.0,7.0,78,0.00,,,0.00,,2013-01-19 20:48:00,
2013-01-19 16:07:00,73.0,66.0,30.07,North,7,7.0,10.0,78,0.00,,,0.00,,2013-01-19 21:07:00,
2013-01-19 16:14:00,73.0,66.0,30.07,North,7,7.0,10.0,78,0.00,,,0.00,,2013-01-19 21:14:00,
2013-01-19 16:44:00,74.0,66.0,30.07,NNW,339,8.0,11.0,76,0.00,,,0.00,,2013-01-19 21:44:00,
2013-01-19 16:51:00,74.0,66.0,30.07,NNW,339,8.0,11.0,76,0.00,,,0.00,,2013-01-19 21:51:00,
2013-01-19 17:00:00,73.0,65.0,30.07,NW,309,7.0,10.0,76,0.00,,,0.00,,2013-01-19 22:00:00,
2013-01-19 17:14:00,73.0,66.0,30.08,NW,315,4.0,11.0,78,0.00,,,0.00,,2013-01-19 22:14:00,
2013-01-19 17:27:00,72.0,65.0,30.08,NW,320,6.0,9.0,78,0.00,,,0.00,,2013-01-19 22:27:00,
2013-01-19 17:48:00,73.0,66.0,30.08,NW,313,4.0,9.0,79,0.00,,,0.00,,2013-01-19 22:48:00,
2013-01-19 17:58:00,73.0,66.0,30.07,NW,311,3.0,6.0,78,0.00,,,0.00,,2013-01-19 22:58:00,
2013-01-19 18:15:00,73.0,66.0,30.08,NNE,13,5.0,7.0,78,0.00,,,0.00,,2013-01-19 23:15:00,
2013-01-19 18:26:00,72.0,65.0,30.08,NW,321,4.0,6.0,79,0.00,,,0.00,,2013-01-19 23:26:00,
2013-01-19 18:34:00,71.0,64.0,30.09,NW,317,4.0,7.0,79,0.00,,,0.00,,2013-01-19 23:34:00,
2013-01-19 18:46:00,71.0,64.0,30.09,NW,317,4.0,7.0,79,0.00,,,0.00,,2013-01-19 23:46:00,
2013-01-19 19:08:00,71.0,65.0,30.09,North,349,6.0,9.0,80,0.00,,,0.00,,2013-01-20 00:08:00,
2013-01-19 19:15:00,71.0,65.0,30.09,NNW,330,6.0,8.0,81,0.00,,,0.00,,2013-01-20 00:15:00,
2013-01-19 19:25:00,71.0,65.0,30.10,NNW,342,5.0,9.0,82,0.00,,,0.00,,2013-01-20 00:25:00,
2013-01-19 19:35:00,71.0,66.0,30.10,NW,325,6.0,10.0,83,0.00,,,0.00,,2013-01-20 00:35:00,
2013-01-19 19:46:00,71.0,66.0,30.10,NW,325,6.0,10.0,83,0.00,,,0.00,,2013-01-20 00:46:00,
2013-01-19 19:58:00,72.0,66.0,30.11,NE,34,5.0,10.0,82,0.00,,,0.00,,2013-01-20 00:58:00,
2013-01-19 20:04:00,72.0,66.0,30.11,ENE,57,6.0,10.0,82,0.00,,,0.00,,2013-01-20 01:04:00,
2013-01-19 20:20:00,72.0,66.0,30.11,ENE,57,6.0,10.0,82,0.00,,,0.00,,2013-01-20 01:20:00,
2013-01-19 20:27:00,72.0,67.0,30.11,NE,35,5.0,9.0,83,0.00,,,0.00,,2013-01-20 01:27:00,
2013-01-19 20:37:00,72.0,67.0,30.11,NNE,17,6.0,9.0,83,0.00,,,0.00,,2013-01-20 01:37:00,
2013-01-19 20:48:00,72.0,67.0,30.11,NNE,17,6.0,9.0,83,0.00,,,0.00,,2013-01-20 01:48:00,
2013-01-19 21:04:00,72.0,67.0,30.11,NW,321,7.0,9.0,84,0.00,,,0.00,,2013-01-20 02:04:00,
2013-01-19 21:15:00,72.0,67.0,30.11,NNW,328,5.0,9.0,85,0.00,,,0.00,,2013-01-20 02:15:00,
2013-01-19 21:27:00,72.0,67.0,30.11,NNE,15,7.0,10.0,85,0.00,,,0.00,,2013-01-20 02:27:00,
2013-01-19 21:36:00,72.0,68.0,30.11,North,352,6.0,11.0,86,0.00,,,0.00,,2013-01-20 02:36:00,
2013-01-19 21:45:00,72.0,68.0,30.11,North,352,6.0,11.0,86,0.00,,,0.00,,2013-01-20 02:45:00,
2013-01-19 21:59:00,72.0,68.0,30.11,NNE,13,8.0,10.0,86,0.00,,,0.00,,2013-01-20 02:59:00,
2013-01-19 22:08:00,72.0,68.0,30.11,NE,53,9.0,11.0,87,0.00,,,0.00,,2013-01-20 03:08:00,
2013-01-19 22:15:00,72.0,68.0,30.11,NE,53,9.0,11.0,87,0.00,,,0.00,,2013-01-20 03:15:00,
2013-01-19 22:25:00,72.0,68.0,30.10,NE,53,7.0,10.0,87,0.00,,,0.00,,2013-01-20 03:25:00,
2013-01-19 22:38:00,72.0,68.0,30.10,NE,44,7.0,9.0,87,0.00,,,0.00,,2013-01-20 03:38:00,
2013-01-19 22:45:00,72.0,68.0,30.10,NE,44,7.0,9.0,87,0.00,,,0.00,,2013-01-20 03:45:00,
2013-01-19 23:05:00,72.0,69.0,30.09,NE,52,8.0,10.0,89,0.00,,,0.00,,2013-01-20 04:05:00,
2013-01-19 23:15:00,72.0,69.0,30.09,NE,52,8.0,10.0,89,0.00,,,0.00,,2013-01-20 04:15:00,
2013-01-19 23:27:00,71.0,68.0,30.09,East,81,6.0,8.0,89,0.00,,,0.00,,2013-01-20 04:27:00,
2013-01-19 23:36:00,71.0,67.0,30.09,East,82,7.0,9.0,88,0.00,,,0.00,,2013-01-20 04:36:00,
2013-01-19 23:44:00,71.0,67.0,30.09,East,82,7.0,9.0,88,0.00,,,0.00,,2013-01-20 04:44:00,
2013-01-19 23:58:00,71.0,68.0,30.09,ENE,67,5.0,8.0,89,0.00,,,0.00,,2013-01-20 04:58:00,